createdAt,value
2018-06-12T00:01:17.857Z,20.60
2018-06-12T00:03:51.013Z,20.60
2018-06-12T00:06:23.987Z,20.50
2018-06-12T00:08:56.708Z,20.40
2018-06-12T00:11:29.681Z,20.40
2018-06-12T00:14:03.377Z,20.50
2018-06-12T00:19:09.960Z,20.50
2018-06-12T00:21:43.240Z,20.50
2018-06-12T00:24:15.668Z,20.50
2018-06-12T00:26:48.592Z,20.60
2018-06-12T00:29:21.342Z,20.50
2018-06-12T00:31:53.956Z,20.50
2018-06-12T00:34:27.051Z,20.50
2018-06-12T00:37:00.106Z,20.50
2018-06-12T00:39:33.094Z,20.50
2018-06-12T00:42:06.869Z,20.50
2018-06-12T00:44:39.796Z,20.40
2018-06-12T00:47:12.754Z,20.40
2018-06-12T00:49:46.578Z,20.40
2018-06-12T00:54:50.969Z,20.50
2018-06-12T00:57:23.472Z,20.50
2018-06-12T00:59:56.338Z,20.50
2018-06-12T01:02:29.565Z,20.50
2018-06-12T01:05:02.370Z,20.50
2018-06-12T01:10:07.432Z,20.60
2018-06-12T01:12:40.634Z,20.60
2018-06-12T01:15:13.319Z,20.70
2018-06-12T01:17:46.092Z,20.70
2018-06-12T01:20:18.702Z,20.70
2018-06-12T01:22:51.751Z,20.60
2018-06-12T01:25:25.311Z,20.50
2018-06-12T01:27:58.538Z,20.50
2018-06-12T01:30:31.857Z,20.50
2018-06-12T01:33:04.344Z,20.50
2018-06-12T01:35:38.096Z,20.60
2018-06-12T01:38:11.002Z,20.60
2018-06-12T01:40:45.052Z,20.60
2018-06-12T01:43:18.414Z,20.60
2018-06-12T01:45:51.213Z,20.70
2018-06-12T01:48:23.938Z,20.70
2018-06-12T01:53:27.880Z,20.70
2018-06-12T01:56:00.482Z,20.60
2018-06-12T01:58:32.913Z,20.50
2018-06-12T02:01:05.497Z,20.40
2018-06-12T02:03:37.911Z,20.50
2018-06-12T02:06:11.217Z,20.50
2018-06-12T02:08:45.556Z,20.50
2018-06-12T02:11:21.024Z,20.50
2018-06-12T02:16:34.784Z,20.50
2018-06-12T02:19:07.488Z,20.40
2018-06-12T02:21:40.449Z,20.40
2018-06-12T02:24:14.984Z,20.40
2018-06-12T02:26:48.746Z,20.40
2018-06-12T02:29:21.727Z,20.30
2018-06-12T02:31:54.481Z,20.30
2018-06-12T02:34:27.077Z,20.30
2018-06-12T02:36:59.902Z,20.20
2018-06-12T02:39:32.750Z,20.20
2018-06-12T02:42:13.887Z,20.20
2018-06-12T03:04:56.123Z,19.70
2018-06-12T03:07:28.448Z,19.60
2018-06-12T03:10:01.915Z,19.50
2018-06-12T03:12:34.683Z,19.40
2018-06-12T03:15:07.199Z,19.30
2018-06-12T03:22:42.489Z,19.00
2018-06-12T03:25:14.981Z,18.90
2018-06-12T03:27:47.936Z,18.80
2018-06-12T03:30:20.599Z,18.70
2018-06-12T03:32:53.590Z,18.60
2018-06-12T03:35:26.528Z,18.50
2018-06-12T03:37:59.353Z,18.40
2018-06-12T03:40:31.905Z,18.30
2018-06-12T03:43:04.846Z,18.10
2018-06-12T03:45:37.648Z,17.90
2018-06-12T03:48:10.099Z,17.80
2018-06-12T03:50:43.533Z,17.70
2018-06-12T03:53:17.833Z,17.70
2018-06-12T03:55:50.911Z,17.50
2018-06-12T03:58:24.102Z,17.30
2018-06-12T04:00:58.344Z,17.20
2018-06-12T04:03:32.330Z,17.20
2018-06-12T04:06:06.910Z,17.20
2018-06-12T04:08:39.436Z,17.10
2018-06-12T04:11:11.997Z,16.90
2018-06-12T04:13:44.463Z,16.80
2018-06-12T04:16:17.416Z,16.70
2018-06-12T04:21:21.554Z,16.40
2018-06-12T04:26:25.368Z,16.20
2018-06-12T04:28:57.986Z,16.10
2018-06-12T04:31:30.550Z,15.90
2018-06-12T04:34:03.330Z,15.80
2018-06-12T04:36:35.638Z,15.70
2018-06-12T04:39:08.717Z,15.60
2018-06-12T04:41:41.287Z,15.50
2018-06-12T04:44:13.858Z,15.40
2018-06-12T04:46:46.469Z,15.30
2018-06-12T04:49:19.360Z,15.20
2018-06-12T04:51:52.522Z,15.10
2018-06-12T04:54:24.956Z,14.90
2018-06-12T04:56:57.319Z,14.80
2018-06-12T04:59:29.938Z,14.70
2018-06-12T05:02:02.797Z,14.70
2018-06-12T05:04:35.305Z,14.60
2018-06-12T05:07:08.284Z,14.50
2018-06-12T05:09:40.998Z,14.40
2018-06-12T05:14:44.793Z,14.30
2018-06-12T05:17:17.757Z,14.20
2018-06-12T05:19:50.620Z,14.10
2018-06-12T05:22:22.848Z,14.00
2018-06-12T05:24:55.571Z,13.90
2018-06-12T05:27:28.087Z,13.90
2018-06-12T05:30:00.888Z,13.80
2018-06-12T05:32:34.027Z,13.80
2018-06-12T05:35:06.845Z,13.80
2018-06-12T05:37:39.300Z,13.80
2018-06-12T05:40:21.778Z,13.80
2018-06-12T05:42:55.086Z,13.80
2018-06-12T05:45:27.917Z,13.80
2018-06-12T05:50:32.304Z,13.80
2018-06-12T05:53:05.492Z,13.60
2018-06-12T05:55:38.388Z,13.60
2018-06-12T05:58:11.396Z,13.50
2018-06-12T06:00:43.890Z,13.40
2018-06-12T06:03:16.482Z,13.40
2018-06-12T06:05:49.179Z,13.30
2018-06-12T06:08:22.088Z,13.30
2018-06-12T06:10:55.005Z,13.30
2018-06-12T06:13:28.994Z,13.20
2018-06-12T06:16:01.520Z,13.10
2018-06-12T06:18:34.507Z,13.30
2018-06-12T06:21:07.698Z,13.10
2018-06-12T06:23:40.424Z,13.10
2018-06-12T06:28:45.565Z,13.10
2018-06-12T06:31:17.994Z,13.10
2018-06-12T06:33:50.926Z,13.20
2018-06-12T06:36:24.038Z,13.30
2018-06-12T06:38:57.143Z,13.20
2018-06-12T06:44:01.232Z,13.10
2018-06-12T06:46:33.869Z,13.10
2018-06-12T06:49:06.538Z,13.00
2018-06-12T06:51:39.776Z,13.30
2018-06-12T06:54:12.486Z,13.00
2018-06-12T06:56:45.562Z,12.90
2018-06-12T06:59:18.357Z,12.90
2018-06-12T07:01:50.973Z,13.10
2018-06-12T07:04:27.139Z,12.80
2018-06-12T07:06:59.627Z,12.70
2018-06-12T07:09:32.780Z,12.70
2018-06-12T07:12:06.397Z,12.90
2018-06-12T07:14:39.053Z,12.50
2018-06-12T07:17:11.633Z,12.50
2018-06-12T07:19:44.277Z,12.40
2018-06-12T07:22:17.152Z,12.40
2018-06-12T07:24:49.716Z,12.40
2018-06-12T07:27:22.317Z,12.30
2018-06-12T07:29:54.722Z,12.30
2018-06-12T07:32:27.453Z,12.20
2018-06-12T07:35:00.547Z,12.10
2018-06-12T07:37:33.587Z,12.00
2018-06-12T07:40:06.462Z,11.90
2018-06-12T07:42:38.891Z,11.80
2018-06-12T07:45:11.442Z,11.70
2018-06-12T07:47:44.089Z,11.80
2018-06-12T07:50:16.599Z,11.80
2018-06-12T07:52:48.817Z,11.70
2018-06-12T07:55:20.943Z,11.70
2018-06-12T07:57:53.735Z,11.70
2018-06-12T08:00:27.010Z,11.60
2018-06-12T08:02:59.854Z,11.90
2018-06-12T08:05:32.697Z,11.50
2018-06-12T08:08:05.074Z,11.60
2018-06-12T08:10:38.636Z,11.30
2018-06-12T08:13:11.657Z,11.30
2018-06-12T08:15:44.357Z,11.30
2018-06-12T08:18:16.833Z,11.20
2018-06-12T08:20:49.059Z,11.30
2018-06-12T08:23:21.525Z,11.10
2018-06-12T08:25:54.180Z,11.00
2018-06-12T08:28:26.907Z,11.00
2018-06-12T08:30:59.905Z,10.90
2018-06-12T08:33:32.601Z,10.90
2018-06-12T08:36:05.249Z,10.80
2018-06-12T08:38:37.902Z,10.70
2018-06-12T08:41:10.600Z,10.90
2018-06-12T08:43:43.192Z,10.60
2018-06-12T08:46:15.658Z,10.50
2018-06-12T08:48:48.886Z,10.70
2018-06-12T08:51:21.632Z,10.40
2018-06-12T08:53:54.443Z,10.30
2018-06-12T08:56:27.529Z,10.20
2018-06-12T08:59:00.133Z,10.20
2018-06-12T09:01:32.828Z,10.10
2018-06-12T09:04:05.478Z,10.00
2018-06-12T09:06:38.410Z,10.00
2018-06-12T09:09:11.168Z,10.00
2018-06-12T09:11:43.713Z,9.80
2018-06-12T09:14:16.329Z,9.70
2018-06-12T09:16:49.039Z,9.80
2018-06-12T09:19:21.490Z,9.70
2018-06-12T09:21:53.997Z,9.40
2018-06-12T09:24:26.333Z,9.80
2018-06-12T09:26:59.245Z,9.60
2018-06-12T09:29:32.249Z,9.60
2018-06-12T09:32:05.137Z,9.60
2018-06-12T09:34:37.592Z,9.60
2018-06-12T09:37:10.397Z,9.50
2018-06-12T09:39:42.773Z,9.70
2018-06-12T09:42:15.495Z,9.30
2018-06-12T09:44:47.796Z,9.30
2018-06-12T09:47:21.063Z,9.50
2018-06-12T09:49:54.041Z,9.30
2018-06-12T09:52:26.873Z,9.20
2018-06-12T09:55:00.043Z,9.40
2018-06-12T09:57:33.016Z,9.20
2018-06-12T10:00:05.705Z,8.90
2018-06-12T10:02:38.391Z,8.80
2018-06-12T10:05:11.677Z,8.80
2018-06-12T10:07:44.262Z,8.80
2018-06-12T10:10:17.315Z,9.10
2018-06-12T10:12:49.970Z,8.90
2018-06-12T10:15:22.584Z,8.80
2018-06-12T10:20:27.327Z,8.80
2018-06-12T10:23:00.110Z,8.80
2018-06-12T10:28:04.119Z,8.80
2018-06-12T10:30:36.473Z,8.80
2018-06-12T10:33:09.326Z,9.00
2018-06-12T10:35:41.750Z,8.70
2018-06-12T10:38:14.571Z,8.50
2018-06-12T10:40:46.992Z,8.70
2018-06-12T10:43:19.732Z,8.90
2018-06-12T10:45:52.317Z,8.60
2018-06-12T10:48:24.920Z,8.50
2018-06-12T10:50:57.756Z,8.80
2018-06-12T10:53:30.421Z,8.50
2018-06-12T10:58:34.033Z,8.40
2018-06-12T11:01:07.668Z,8.60
2018-06-12T11:03:40.134Z,8.40
2018-06-12T11:06:12.628Z,8.50
2018-06-12T11:08:45.967Z,8.40
2018-06-12T11:11:18.626Z,8.40
2018-06-12T11:13:51.097Z,8.40
2018-06-12T11:16:24.061Z,8.40
2018-06-12T11:18:56.401Z,8.30
2018-06-12T11:21:29.045Z,8.10
2018-06-12T11:24:01.609Z,8.40
2018-06-12T11:26:34.294Z,8.10
2018-06-12T11:29:07.236Z,8.10
2018-06-12T11:31:40.297Z,8.10
2018-06-12T11:34:13.332Z,8.10
2018-06-12T11:36:45.876Z,8.00
2018-06-12T11:39:18.080Z,8.10
2018-06-12T11:41:51.314Z,7.90
2018-06-12T11:44:24.413Z,7.90
2018-06-12T11:46:57.046Z,7.70
2018-06-12T11:49:29.792Z,7.80
2018-06-12T11:52:02.117Z,8.00
2018-06-12T11:54:34.973Z,7.80
2018-06-12T11:57:07.365Z,7.70
2018-06-12T11:59:40.229Z,7.70
2018-06-12T12:02:12.670Z,7.80
2018-06-12T12:04:45.060Z,7.60
2018-06-12T12:07:17.893Z,7.70
2018-06-12T12:09:51.189Z,7.80
2018-06-12T12:12:23.991Z,7.80
2018-06-12T12:14:56.834Z,7.60
2018-06-12T12:17:29.447Z,7.50
2018-06-12T12:20:01.984Z,7.80
2018-06-12T12:22:34.145Z,7.70
2018-06-12T12:25:06.619Z,7.60
2018-06-12T12:27:39.114Z,7.70
2018-06-12T12:30:11.876Z,7.60
2018-06-12T12:32:44.345Z,7.70
2018-06-12T12:35:16.872Z,7.70
2018-06-12T12:37:49.401Z,7.50
2018-06-12T12:40:21.989Z,7.70
2018-06-12T12:42:54.951Z,7.50
2018-06-12T12:45:27.910Z,7.70
2018-06-12T12:48:00.349Z,7.60
2018-06-12T12:50:33.044Z,7.60
2018-06-12T12:53:05.466Z,7.70
2018-06-12T12:58:10.038Z,7.60
2018-06-12T13:00:42.353Z,7.70
2018-06-12T13:03:15.283Z,7.70
2018-06-12T13:05:48.081Z,7.70
2018-06-12T13:08:20.314Z,7.70
2018-06-12T13:10:53.048Z,7.70
2018-06-12T13:13:25.774Z,7.80
2018-06-12T13:15:59.682Z,7.90
2018-06-12T13:18:33.338Z,8.10
2018-06-12T13:21:06.238Z,8.10
2018-06-12T13:23:38.449Z,8.10
2018-06-12T13:28:42.671Z,8.40
2018-06-12T13:31:15.305Z,8.40
2018-06-12T13:33:47.768Z,8.40
2018-06-12T13:36:20.775Z,8.40
2018-06-12T13:38:53.705Z,8.60
2018-06-12T13:41:26.291Z,8.70
2018-06-12T13:43:58.640Z,8.80
2018-06-12T13:46:30.860Z,8.90
2018-06-12T13:49:06.981Z,9.10
2018-06-12T14:08:56.440Z,10.10
2018-06-12T14:11:29.135Z,10.30
2018-06-12T14:14:02.698Z,10.40
2018-06-12T14:16:36.246Z,10.60
2018-06-12T14:19:09.329Z,10.80
2018-06-12T14:21:42.159Z,10.70
2018-06-12T14:24:14.364Z,11.10
2018-06-12T14:26:46.874Z,11.30
2018-06-12T14:29:19.416Z,11.40
2018-06-12T14:31:52.542Z,11.50
2018-06-12T14:34:24.808Z,11.60
2018-06-12T14:36:57.269Z,11.70
2018-06-12T14:39:29.929Z,11.90
2018-06-12T14:42:02.494Z,12.10
2018-06-12T14:44:34.972Z,12.40
2018-06-12T14:47:07.461Z,12.50
2018-06-12T14:52:11.897Z,12.70
2018-06-12T14:57:15.368Z,13.10
2018-06-12T14:59:48.111Z,13.70
2018-06-12T15:02:21.050Z,14.40
2018-06-12T15:04:53.336Z,15.00
2018-06-12T15:07:25.760Z,15.70
2018-06-12T15:09:58.089Z,16.50
2018-06-12T15:12:31.279Z,17.00
2018-06-12T15:15:03.914Z,17.30
2018-06-12T15:17:36.838Z,17.60
2018-06-12T15:20:09.381Z,17.60
2018-06-12T15:22:42.144Z,17.90
2018-06-12T15:25:14.980Z,18.30
2018-06-12T15:27:47.691Z,18.90
2018-06-12T15:30:20.324Z,19.80
2018-06-12T15:32:53.457Z,20.10
2018-06-12T15:35:26.366Z,20.70
2018-06-12T15:37:59.196Z,21.40
2018-06-12T15:40:31.782Z,22.30
2018-06-12T15:43:04.461Z,23.50
2018-06-12T15:45:37.023Z,23.40
2018-06-12T15:48:09.538Z,24.50
2018-06-12T15:50:42.093Z,23.60
2018-06-12T15:53:14.315Z,22.90
2018-06-12T15:55:46.866Z,23.40
2018-06-12T15:58:19.501Z,24.70
2018-06-12T16:00:51.945Z,24.90
2018-06-12T16:03:24.626Z,24.60
2018-06-12T16:05:57.506Z,24.70
2018-06-12T16:08:29.994Z,24.60
2018-06-12T16:11:02.449Z,24.90
2018-06-12T16:13:34.726Z,24.80
2018-06-12T16:16:07.473Z,25.20
2018-06-12T16:18:41.591Z,24.80
2018-06-12T16:21:13.799Z,25.10
2018-06-12T16:23:47.374Z,25.40
2018-06-12T16:26:20.377Z,26.00
2018-06-12T16:28:53.010Z,26.20
2018-06-12T16:31:25.334Z,26.80
2018-06-12T16:33:58.483Z,27.00
2018-06-12T16:36:30.989Z,27.20
2018-06-12T16:39:04.266Z,26.00
2018-06-12T16:41:37.406Z,26.20
2018-06-12T16:44:10.471Z,26.90
2018-06-12T16:46:43.057Z,27.30
2018-06-12T16:49:16.245Z,27.60
2018-06-12T16:51:49.402Z,26.50
2018-06-12T16:54:22.177Z,26.90
2018-06-12T16:56:54.856Z,26.80
2018-06-12T16:59:27.349Z,26.90
2018-06-12T17:02:00.048Z,27.30
2018-06-12T17:04:32.470Z,27.70
2018-06-12T17:07:05.032Z,27.00
2018-06-12T17:09:37.519Z,27.00
2018-06-12T17:12:11.189Z,27.20
2018-06-12T17:14:43.850Z,27.00
2018-06-12T17:17:17.010Z,26.90
2018-06-12T17:19:50.954Z,26.40
2018-06-12T17:22:23.661Z,26.50
2018-06-12T17:24:56.642Z,26.30
2018-06-12T17:27:35.212Z,26.40
2018-06-12T17:30:08.051Z,26.20
2018-06-12T17:32:40.381Z,25.90
2018-06-12T17:35:12.847Z,26.40
2018-06-12T17:37:45.397Z,27.10
2018-06-12T17:40:17.911Z,26.70
2018-06-12T17:42:50.204Z,27.50
2018-06-12T17:45:23.105Z,27.50
2018-06-12T17:47:55.718Z,27.50
2018-06-12T17:50:28.225Z,27.50
2018-06-12T17:53:00.857Z,27.10
2018-06-12T17:55:33.236Z,27.00
2018-06-12T17:58:06.017Z,27.10
2018-06-12T18:00:38.703Z,26.50
2018-06-12T18:03:11.666Z,27.60
2018-06-12T18:05:44.575Z,27.90
2018-06-12T18:10:49.415Z,27.40
2018-06-12T18:13:22.161Z,27.30
2018-06-12T18:15:55.066Z,27.80
2018-06-12T18:18:28.571Z,27.90
2018-06-12T18:21:01.177Z,27.40
2018-06-12T18:23:33.434Z,27.80
2018-06-12T18:26:06.299Z,28.20
2018-06-12T18:28:39.117Z,28.50
2018-06-12T18:31:11.779Z,28.50
2018-06-12T18:33:44.439Z,28.40
2018-06-12T18:36:17.468Z,27.80
2018-06-12T18:38:50.150Z,28.50
2018-06-12T18:41:22.424Z,28.10
2018-06-12T18:43:55.642Z,28.00
2018-06-12T18:46:28.026Z,27.90
2018-06-12T18:51:32.149Z,28.20
2018-06-12T18:54:04.903Z,28.00
2018-06-12T18:56:38.149Z,28.50
2018-06-12T18:59:10.693Z,28.20
2018-06-12T19:01:43.346Z,28.10
2018-06-12T19:04:15.949Z,27.80
2018-06-12T19:06:48.863Z,28.10
2018-06-12T19:09:21.769Z,27.90
2018-06-12T19:11:54.138Z,27.40
2018-06-12T19:14:26.818Z,27.50
2018-06-12T19:16:59.909Z,27.20
2018-06-12T19:19:32.113Z,27.90
2018-06-12T19:22:05.989Z,28.60
2018-06-12T19:24:38.398Z,28.70
2018-06-12T19:27:11.079Z,29.70
2018-06-12T19:29:43.947Z,28.50
2018-06-12T19:32:16.828Z,28.50
2018-06-12T19:34:49.578Z,28.90
2018-06-12T19:37:22.159Z,29.20
2018-06-12T19:39:55.037Z,28.90
2018-06-12T19:42:28.084Z,28.50
2018-06-12T19:45:00.459Z,28.30
2018-06-12T19:47:33.738Z,27.90
2018-06-12T19:50:07.974Z,28.50
2018-06-12T19:52:40.635Z,28.70
2018-06-12T19:55:13.738Z,28.30
2018-06-12T19:57:46.134Z,27.70
2018-06-12T20:00:18.646Z,27.70
2018-06-12T20:02:51.511Z,27.50
2018-06-12T20:05:23.632Z,27.00
2018-06-12T20:07:56.294Z,26.70
2018-06-12T20:10:29.176Z,26.50
2018-06-12T20:13:01.608Z,26.30
2018-06-12T20:15:34.350Z,25.90
2018-06-12T20:18:06.945Z,25.90
2018-06-12T20:20:39.612Z,25.80
2018-06-12T20:25:44.913Z,25.80
2018-06-12T20:28:17.492Z,25.70
2018-06-12T20:30:50.262Z,25.30
2018-06-12T20:33:22.800Z,24.60
2018-06-12T20:35:55.512Z,24.50
2018-06-12T20:38:27.834Z,25.00
2018-06-12T20:41:00.564Z,24.90
2018-06-12T20:43:33.306Z,25.10
2018-06-12T20:46:06.182Z,25.30
2018-06-12T20:48:38.996Z,25.00
2018-06-12T20:51:11.648Z,25.00
2018-06-12T20:53:44.747Z,25.20
2018-06-12T20:56:17.617Z,25.40
2018-06-12T20:58:50.397Z,25.50
2018-06-12T21:01:23.895Z,25.70
2018-06-12T21:03:56.438Z,25.60
2018-06-12T21:06:29.216Z,25.80
2018-06-12T21:20:10.816Z,24.80
2018-06-12T21:22:43.557Z,24.80
2018-06-12T21:25:16.973Z,24.90
2018-06-12T21:27:49.613Z,25.10
2018-06-12T21:30:21.892Z,25.30
2018-06-12T21:32:54.429Z,25.40
2018-06-12T21:35:26.902Z,25.50
2018-06-12T21:37:59.705Z,25.80
2018-06-12T21:40:32.421Z,25.90
2018-06-12T21:43:05.423Z,25.70
2018-06-12T21:48:10.599Z,25.70
2018-06-12T21:50:42.938Z,25.80
2018-06-12T21:53:15.865Z,25.80
2018-06-12T21:55:48.207Z,25.80
2018-06-12T21:58:20.482Z,25.80
2018-06-12T22:03:24.312Z,25.90
2018-06-12T22:05:57.824Z,26.10
2018-06-12T22:08:30.584Z,26.20
2018-06-12T22:11:02.848Z,26.40
2018-06-12T22:13:35.652Z,26.20
2018-06-12T22:16:08.203Z,26.20
2018-06-12T22:18:40.653Z,25.90
2018-06-12T22:21:13.016Z,26.20
2018-06-12T22:23:45.881Z,26.30
2018-06-12T22:26:19.784Z,26.40
2018-06-12T22:28:52.838Z,26.10
2018-06-12T22:31:25.530Z,26.30
2018-06-12T22:33:58.381Z,26.50
2018-06-12T22:41:34.535Z,27.00
2018-06-12T22:44:06.983Z,27.00
2018-06-12T22:46:39.444Z,27.00
2018-06-12T22:49:12.075Z,26.90
2018-06-12T22:51:44.850Z,27.10
2018-06-12T22:54:17.832Z,27.00
2018-06-12T22:56:50.587Z,27.00
2018-06-12T22:59:23.346Z,27.00
2018-06-12T23:01:56.855Z,27.00
2018-06-12T23:04:29.151Z,27.00
2018-06-12T23:07:01.969Z,27.20
2018-06-12T23:09:34.685Z,27.10
2018-06-12T23:12:07.574Z,27.10
2018-06-12T23:14:40.573Z,26.70
2018-06-12T23:17:14.482Z,26.70
2018-06-12T23:19:56.070Z,26.80
2018-06-12T23:22:29.262Z,26.90
2018-06-12T23:25:01.632Z,26.80
2018-06-12T23:27:37.964Z,26.80
2018-06-12T23:30:11.652Z,26.50
2018-06-12T23:32:45.234Z,26.50
2018-06-12T23:35:19.108Z,26.60
2018-06-12T23:40:30.033Z,26.60
2018-06-12T23:43:03.090Z,26.60
2018-06-12T23:45:36.748Z,26.70
2018-06-12T23:48:10.355Z,26.70
2018-06-12T23:50:43.379Z,26.90
2018-06-12T23:53:15.867Z,26.70
2018-06-12T23:55:48.812Z,26.70
2018-06-12T23:58:21.608Z,26.70
